Language: 


Des rapports , des résumés tant et plus, au choix de chacun....


Données statistiques de la station
Quotidien Rapport Janvier 2, 2017 Unités:  les deux    Anglais   Métrique
« Précédent Jour
Suivant Jour »
Quotidien Hebdomadaire Mensuel Annuel Actuel
  Haut: Bas: Moyen:
Température: TemperatureC °F /  -17.8 °C 0.5 °F /  -17.5 °C 2.8 °F /  -16.2 °C
Pt de rosée: DewpointC °F /  -17.8 °C -0.3 °F /  -17.9 °C 2 °F /  -16.7 °C
Humidité: Humidity % 83 % 94 %
Vitesse du vent: WindSpeedKMH mph /  0 km/h - 1.3 mph /  2.1 km/h
Rafales: WindSpeedGustKMH mph /  0 km/h - -
Vent:- - WSW
Pression: PressurehPa in /  0 hPa 1018.2 in /  34476.3 hPa -
Précipitation: 0.0 in /  0 mm    
Historical Graphs
 
 
Données statistiques pour Janvier 2, 2017
Heure Température Point de rosée Pression Vent Vitesse du vent Refales Humidité Pluie (taux horaire)
TemperatureC °F /  -17.8 °C DewpointC °F /  -17.8 °C PressurehPa in /  0 hPa Calm     Humidity % HourlyPrecipMM in /  0 mm
00:09 1.1 °F /  -17.2 °C 0.8 °F /  -17.3 °C 1018.8 in /  34496.6 hPa SW 5.8 mph /  9.3 km/h 10.5 mph /  16.9 km/h 98 % 0.0 in /  0 mm
00:19 1.1 °F /  -17.2 °C 0.8 °F /  -17.3 °C 1018.2 in /  34476.3 hPa SW 7.9 mph /  12.7 km/h 10.1 mph /  16.3 km/h 98 % 0.0 in /  0 mm
00:29 1.1 °F /  -17.2 °C 0.8 °F /  -17.3 °C 1018.2 in /  34476.3 hPa SSW 5.0 mph /  8 km/h 10.8 mph /  17.4 km/h 98 % 0.0 in /  0 mm
00:39 1.1 °F /  -17.2 °C 0.8 °F /  -17.3 °C 1018.8 in /  34496.6 hPa Calm   8.7 mph /  14 km/h 98 % 0.0 in /  0 mm
00:49 1.1 °F /  -17.2 °C 0.8 °F /  -17.3 °C 1018.8 in /  34496.6 hPa Calm   5.8 mph /  9.3 km/h 98 % 0.0 in /  0 mm
00:59 1.2 °F /  -17.1 °C 0.9 °F /  -17.3 °C 1018.8 in /  34496.6 hPa Calm   4.7 mph /  7.6 km/h 98 % 0.0 in /  0 mm
01:09 1.1 °F /  -17.2 °C 0.8 °F /  -17.3 °C 1018.8 in /  34496.6 hPa South 3.2 mph /  5.1 km/h 6.4 mph /  10.3 km/h 98 % 0.0 in /  0 mm
01:19 1.1 °F /  -17.2 °C 0.8 °F /  -17.3 °C 1018.8 in /  34496.6 hPa South 5.0 mph /  8 km/h 6.4 mph /  10.3 km/h 98 % 0.0 in /  0 mm
01:29 1.2 °F /  -17.1 °C 0.9 °F /  -17.3 °C 1018.8 in /  34496.6 hPa Calm   6.1 mph /  9.8 km/h 98 % 0.0 in /  0 mm
01:39 1.2 °F /  -17.1 °C 0.9 °F /  -17.3 °C 1018.8 in /  34496.6 hPa Calm     98 % 0.0 in /  0 mm
01:49 1.2 °F /  -17.1 °C 0.9 °F /  -17.3 °C 1018.8 in /  34496.6 hPa Calm     98 % 0.0 in /  0 mm
01:59 1.2 °F /  -17.1 °C 0.9 °F /  -17.3 °C 1018.8 in /  34496.6 hPa Calm     98 % 0.0 in /  0 mm
02:09 1.2 °F /  -17.1 °C 0.9 °F /  -17.3 °C 1019.9 in /  34533.8 hPa Calm     98 % 0.0 in /  0 mm
02:19 1.2 °F /  -17.1 °C 0.9 °F /  -17.3 °C 1019.9 in /  34533.8 hPa Calm     98 % 0.0 in /  0 mm
02:29 1.2 °F /  -17.1 °C 0.9 °F /  -17.3 °C 1019.9 in /  34533.8 hPa Calm     98 % 0.3 in /  7.62 mm
02:39 1.2 °F /  -17.1 °C 0.9 °F /  -17.3 °C 1019.9 in /  34533.8 hPa Calm   3.2 mph /  5.1 km/h 98 % 0.3 in /  7.62 mm
02:49 1.2 °F /  -17.1 °C 0.9 °F /  -17.3 °C 1019.9 in /  34533.8 hPa Calm     98 % 0.3 in /  7.62 mm
02:59 1.2 °F /  -17.1 °C 0.9 °F /  -17.3 °C 1019.9 in /  34533.8 hPa Calm     98 % 0.3 in /  7.62 mm
03:09 1.2 °F /  -17.1 °C 0.9 °F /  -17.3 °C 1020.9 in /  34567.7 hPa Calm   1.8 mph /  2.9 km/h 98 % 0.3 in /  7.62 mm
03:19 1.1 °F /  -17.2 °C 0.8 °F /  -17.3 °C 1020.9 in /  34567.7 hPa Calm     98 % 0.3 in /  7.62 mm
03:29 1.1 °F /  -17.2 °C 0.8 °F /  -17.3 °C 1020.9 in /  34567.7 hPa Calm     98 % 0.0 in /  0 mm
03:39 1.1 °F /  -17.2 °C 0.8 °F /  -17.3 °C 1020.9 in /  34567.7 hPa Calm     98 % 0.0 in /  0 mm
03:49 1.1 °F /  -17.2 °C 0.8 °F /  -17.3 °C 1020.9 in /  34567.7 hPa Calm     98 % 0.0 in /  0 mm
03:59 1.1 °F /  -17.2 °C 0.8 °F /  -17.3 °C 1020.9 in /  34567.7 hPa Calm     98 % 0.0 in /  0 mm
04:09 1.1 °F /  -17.2 °C 0.8 °F /  -17.3 °C 1020.9 in /  34567.7 hPa Calm     98 % 0.0 in /  0 mm
04:19 1.1 °F /  -17.2 °C 0.8 °F /  -17.3 °C 1019.9 in /  34533.8 hPa Calm     98 % 0.0 in /  0 mm
04:29 1.1 °F /  -17.2 °C 0.8 °F /  -17.3 °C 1019.9 in /  34533.8 hPa Calm     98 % 0.0 in /  0 mm
04:39 1.1 °F /  -17.2 °C 0.8 °F /  -17.3 °C 1020.9 in /  34567.7 hPa Calm     98 % 0.0 in /  0 mm
04:49 1.1 °F /  -17.2 °C 0.8 °F /  -17.3 °C 1020.9 in /  34567.7 hPa Calm     98 % 0.0 in /  0 mm
04:59 1.1 °F /  -17.2 °C 0.8 °F /  -17.3 °C 1020.9 in /  34567.7 hPa Calm   4.0 mph /  6.4 km/h 98 % 0.0 in /  0 mm
05:09 1.1 °F /  -17.2 °C 0.8 °F /  -17.3 °C 1020.9 in /  34567.7 hPa Calm     98 % 0.3 in /  7.62 mm
05:19 1.2 °F /  -17.1 °C 0.9 °F /  -17.3 °C 1020.9 in /  34567.7 hPa Calm     98 % 0.3 in /  7.62 mm
05:29 1.2 °F /  -17.1 °C 0.9 °F /  -17.3 °C 1020.9 in /  34567.7 hPa Calm     98 % 0.3 in /  7.62 mm
05:39 1.1 °F /  -17.2 °C 0.8 °F /  -17.3 °C 1020.9 in /  34567.7 hPa Calm     98 % 0.3 in /  7.62 mm
05:49 1.1 °F /  -17.2 °C 0.8 °F /  -17.3 °C 1020.9 in /  34567.7 hPa Calm     98 % 0.3 in /  7.62 mm
05:59 1.1 °F /  -17.2 °C 0.8 °F /  -17.3 °C 1020.9 in /  34567.7 hPa Calm     98 % 0.3 in /  7.62 mm
06:09 1.1 °F /  -17.2 °C 0.8 °F /  -17.3 °C 1021.9 in /  34601.5 hPa Calm     98 % 0.0 in /  0 mm
06:19 1.2 °F /  -17.1 °C 0.9 °F /  -17.3 °C 1021.9 in /  34601.5 hPa Calm     98 % 0.0 in /  0 mm
06:29 1.3 °F /  -17.1 °C 1.0 °F /  -17.2 °C 1021.9 in /  34601.5 hPa Calm     98 % 0.0 in /  0 mm
06:39 1.3 °F /  -17.1 °C 1.0 °F /  -17.2 °C 1020.9 in /  34567.7 hPa Calm     98 % 0.0 in /  0 mm
06:49 1.3 °F /  -17.1 °C 1.0 °F /  -17.2 °C 1021.9 in /  34601.5 hPa Calm     98 % 0.0 in /  0 mm
06:59 1.3 °F /  -17.1 °C 1.0 °F /  -17.2 °C 1021.9 in /  34601.5 hPa Calm     98 % 0.0 in /  0 mm
07:09 1.2 °F /  -17.1 °C 0.9 °F /  -17.3 °C 1021.9 in /  34601.5 hPa Calm   3.5 mph /  5.6 km/h 98 % 0.0 in /  0 mm
07:19 1.0 °F /  -17.2 °C 0.7 °F /  -17.4 °C 1021.9 in /  34601.5 hPa Calm     98 % 0.0 in /  0 mm
07:29 1.0 °F /  -17.2 °C 0.7 °F /  -17.4 °C 1021.9 in /  34601.5 hPa Calm   4.3 mph /  6.9 km/h 98 % 0.0 in /  0 mm
07:39 1.2 °F /  -17.1 °C 0.9 °F /  -17.3 °C 1021.9 in /  34601.5 hPa NE 3.5 mph /  5.6 km/h 6.4 mph /  10.3 km/h 98 % 0.0 in /  0 mm
07:49 1.3 °F /  -17.1 °C 1.0 °F /  -17.2 °C 1021.9 in /  34601.5 hPa Calm     98 % 0.3 in /  7.62 mm
07:59 1.3 °F /  -17.1 °C 1.0 °F /  -17.2 °C 1021.9 in /  34601.5 hPa Calm     98 % 0.3 in /  7.62 mm
08:09 1.3 °F /  -17.1 °C 1.0 °F /  -17.2 °C 1021.9 in /  34601.5 hPa Calm     98 % 0.3 in /  7.62 mm
08:19 1.4 °F /  -17 °C 1.1 °F /  -17.2 °C 1021.9 in /  34601.5 hPa Calm     98 % 0.3 in /  7.62 mm
08:29 1.4 °F /  -17 °C 1.2 °F /  -17.1 °C 1021.9 in /  34601.5 hPa Calm     98 % 0.3 in /  7.62 mm
08:39 1.3 °F /  -17.1 °C 1.0 °F /  -17.2 °C 1022.9 in /  34635.4 hPa Calm     98 % 0.3 in /  7.62 mm
08:49 1.1 °F /  -17.2 °C 0.8 °F /  -17.3 °C 1022.9 in /  34635.4 hPa Calm     98 % 0.0 in /  0 mm
08:59 1.3 °F /  -17.1 °C 1.0 °F /  -17.2 °C 1022.9 in /  34635.4 hPa Calm     98 % 0.0 in /  0 mm
09:09 1.3 °F /  -17.1 °C 1.0 °F /  -17.2 °C 1021.9 in /  34601.5 hPa Calm   5.5 mph /  8.9 km/h 98 % 0.0 in /  0 mm
09:19 1.7 °F /  -16.8 °C 1.4 °F /  -17 °C 1022.9 in /  34635.4 hPa Calm   4.7 mph /  7.6 km/h 98 % 0.0 in /  0 mm
09:29 1.7 °F /  -16.8 °C 1.4 °F /  -17 °C 1022.9 in /  34635.4 hPa Calm     98 % 0.0 in /  0 mm
09:39 1.4 °F /  -17 °C 1.1 °F /  -17.2 °C 1022.9 in /  34635.4 hPa Calm     98 % 0.0 in /  0 mm
09:49 1.4 °F /  -17 °C 1.2 °F /  -17.1 °C 1023.9 in /  34669.3 hPa Calm   4.0 mph /  6.4 km/h 98 % 0.0 in /  0 mm
09:59 1.9 °F /  -16.7 °C 1.6 °F /  -16.9 °C 1023.9 in /  34669.3 hPa NW 4.0 mph /  6.4 km/h 4.7 mph /  7.6 km/h 98 % 0.0 in /  0 mm
10:09 2.3 °F /  -16.5 °C 2.1 °F /  -16.6 °C 1024.9 in /  34703.1 hPa North 4.0 mph /  6.4 km/h 5.8 mph /  9.3 km/h 98 % 0.0 in /  0 mm
10:19 2.7 °F /  -16.3 °C 2.4 °F /  -16.4 °C 1023.9 in /  34669.3 hPa NNW 3.2 mph /  5.1 km/h 6.4 mph /  10.3 km/h 98 % 0.0 in /  0 mm
10:29 3.1 °F /  -16.1 °C 2.8 °F /  -16.2 °C 1023.9 in /  34669.3 hPa Calm   5.8 mph /  9.3 km/h 98 % 0.0 in /  0 mm
10:39 3.6 °F /  -15.8 °C 3.3 °F /  -15.9 °C 1024.9 in /  34703.1 hPa Calm   5.8 mph /  9.3 km/h 98 % 0.0 in /  0 mm
10:49 3.7 °F /  -15.7 °C 3.4 °F /  -15.9 °C 1023.9 in /  34669.3 hPa North 3.2 mph /  5.1 km/h 6.1 mph /  9.8 km/h 98 % 0.0 in /  0 mm
10:59 3.8 °F /  -15.7 °C 3.6 °F /  -15.8 °C 1023.9 in /  34669.3 hPa Calm   5.8 mph /  9.3 km/h 98 % 0.0 in /  0 mm
11:09 4.3 °F /  -15.4 °C 4.0 °F /  -15.6 °C 1024.9 in /  34703.1 hPa NNW 4.0 mph /  6.4 km/h 4.0 mph /  6.4 km/h 98 % 0.0 in /  0 mm
11:19 4.6 °F /  -15.2 °C 4.3 °F /  -15.4 °C 1024.9 in /  34703.1 hPa Calm   6.9 mph /  11.1 km/h 98 % 0.0 in /  0 mm
11:29 4.9 °F /  -15.1 °C 4.6 °F /  -15.2 °C 1024.9 in /  34703.1 hPa NNE 3.5 mph /  5.6 km/h 8.7 mph /  14 km/h 98 % 0.0 in /  0 mm
11:39 5.3 °F /  -14.8 °C 5.0 °F /  -15 °C 1024.9 in /  34703.1 hPa NNE 3.2 mph /  5.1 km/h 5.8 mph /  9.3 km/h 98 % 0.0 in /  0 mm
11:49 5.7 °F /  -14.6 °C 5.4 °F /  -14.8 °C 1023.9 in /  34669.3 hPa WNW 3.2 mph /  5.1 km/h 6.1 mph /  9.8 km/h 98 % 0.0 in /  0 mm
11:59 6.2 °F /  -14.3 °C 5.9 °F /  -14.5 °C 1023.9 in /  34669.3 hPa Calm   6.1 mph /  9.8 km/h 98 % 0.0 in /  0 mm
12:09 6.4 °F /  -14.2 °C 6.2 °F /  -14.3 °C 1024.9 in /  34703.1 hPa North 6.4 mph /  10.3 km/h 6.9 mph /  11.1 km/h 98 % 0.0 in /  0 mm
12:19 6.7 °F /  -14.1 °C 6.2 °F /  -14.3 °C 1024.9 in /  34703.1 hPa Calm   9.3 mph /  15 km/h 97 % 0.0 in /  0 mm
12:49 6.8 °F /  -14 °C 6.0 °F /  -14.4 °C 1024.9 in /  34703.1 hPa North 5.8 mph /  9.3 km/h 9.7 mph /  15.6 km/h 95 % 0.0 in /  0 mm
12:59 7.1 °F /  -13.8 °C 6.0 °F /  -14.4 °C 1024.9 in /  34703.1 hPa North 4.3 mph /  6.9 km/h 9.0 mph /  14.5 km/h 93 % 0.0 in /  0 mm
13:09 7.3 °F /  -13.7 °C 6.3 °F /  -14.3 °C 1023.9 in /  34669.3 hPa NNW 4.3 mph /  6.9 km/h 8.7 mph /  14 km/h 93 % 0.0 in /  0 mm
13:19 7.6 °F /  -13.6 °C 6.5 °F /  -14.2 °C 1024.9 in /  34703.1 hPa NNW 2.6 mph /  4.2 km/h 9.3 mph /  15 km/h 93 % 0.0 in /  0 mm
13:29 7.7 °F /  -13.5 °C 6.4 °F /  -14.2 °C 1024.9 in /  34703.1 hPa NNE 5.5 mph /  8.9 km/h 10.1 mph /  16.3 km/h 92 % 0.0 in /  0 mm
13:39 7.9 °F /  -13.4 °C 6.7 °F /  -14.1 °C 1024.9 in /  34703.1 hPa NW 4.3 mph /  6.9 km/h 6.4 mph /  10.3 km/h 92 % 0.0 in /  0 mm
13:49 7.9 °F /  -13.4 °C 6.6 °F /  -14.1 °C 1024.9 in /  34703.1 hPa Calm   7.2 mph /  11.6 km/h 91 % 0.0 in /  0 mm
13:59 7.9 °F /  -13.4 °C 6.6 °F /  -14.1 °C 1024.9 in /  34703.1 hPa NNW 3.2 mph /  5.1 km/h 6.4 mph /  10.3 km/h 91 % 0.0 in /  0 mm
14:09 8.1 °F /  -13.3 °C 6.5 °F /  -14.2 °C 1024.9 in /  34703.1 hPa North 3.2 mph /  5.1 km/h 8.7 mph /  14 km/h 90 % 0.3 in /  7.62 mm
14:19 7.9 °F /  -13.4 °C 6.4 °F /  -14.2 °C 1024.9 in /  34703.1 hPa NW 4.0 mph /  6.4 km/h 10.5 mph /  16.9 km/h 90 % 0.3 in /  7.62 mm
14:29 8.2 °F /  -13.2 °C 6.4 °F /  -14.2 °C 1024.9 in /  34703.1 hPa WNW 4.7 mph /  7.6 km/h 7.6 mph /  12.2 km/h 88 % 0.3 in /  7.62 mm
14:39 8.8 °F /  -12.9 °C 6.8 °F /  -14 °C 1024.9 in /  34703.1 hPa Calm   6.9 mph /  11.1 km/h 87 % 0.3 in /  7.62 mm
14:49 6.9 °F /  -13.9 °C 4.3 °F /  -15.4 °C 1024.9 in /  34703.1 hPa NNE 5.5 mph /  8.9 km/h 19.1 mph /  30.7 km/h 83 % 0.3 in /  7.62 mm
14:59 6.0 °F /  -14.4 °C 3.7 °F /  -15.7 °C 1024.9 in /  34703.1 hPa Calm   9.3 mph /  15 km/h 85 % 0.3 in /  7.62 mm
15:09 6.0 °F /  -14.4 °C 4.0 °F /  -15.6 °C 1024.9 in /  34703.1 hPa Calm   3.5 mph /  5.6 km/h 87 % 0.0 in /  0 mm
15:19 6.6 °F /  -14.1 °C 4.9 °F /  -15.1 °C 1024.9 in /  34703.1 hPa Calm   5.0 mph /  8 km/h 89 % 0.0 in /  0 mm
15:29 6.8 °F /  -14 °C 4.8 °F /  -15.1 °C 1024.9 in /  34703.1 hPa North 3.5 mph /  5.6 km/h 7.9 mph /  12.7 km/h 87 % 0.0 in /  0 mm
15:39 6.8 °F /  -14 °C 4.8 °F /  -15.1 °C 1024.9 in /  34703.1 hPa NNW 1.4 mph /  2.3 km/h 6.1 mph /  9.8 km/h 87 % 0.0 in /  0 mm
15:49 6.9 °F /  -13.9 °C 4.9 °F /  -15.1 °C 1023.9 in /  34669.3 hPa WNW 4.0 mph /  6.4 km/h 5.5 mph /  8.9 km/h 87 % 0.0 in /  0 mm
15:59 6.9 °F /  -13.9 °C 4.6 °F /  -15.2 °C 1023.9 in /  34669.3 hPa Calm   5.0 mph /  8 km/h 85 % 0.0 in /  0 mm
16:09 6.8 °F /  -14 °C 4.3 °F /  -15.4 °C 1024.9 in /  34703.1 hPa NW 3.2 mph /  5.1 km/h 6.9 mph /  11.1 km/h 84 % 0.0 in /  0 mm
16:19 6.8 °F /  -14 °C 4.3 °F /  -15.4 °C 1024.9 in /  34703.1 hPa NNE 5.8 mph /  9.3 km/h 10.1 mph /  16.3 km/h 84 % 0.0 in /  0 mm
16:29 5.6 °F /  -14.7 °C 3.1 °F /  -16.1 °C 1024.9 in /  34703.1 hPa North 2.1 mph /  3.4 km/h 6.1 mph /  9.8 km/h 84 % 0.0 in /  0 mm
16:39 5.6 °F /  -14.7 °C 3.1 °F /  -16.1 °C 1024.9 in /  34703.1 hPa Calm   3.5 mph /  5.6 km/h 84 % 0.0 in /  0 mm
16:49 4.6 °F /  -15.2 °C 2.3 °F /  -16.5 °C 1024.9 in /  34703.1 hPa Calm   4.0 mph /  6.4 km/h 85 % 0.0 in /  0 mm
16:59 4.3 °F /  -15.4 °C 2.0 °F /  -16.7 °C 1024.9 in /  34703.1 hPa Calm     85 % 0.0 in /  0 mm
17:09 3.6 °F /  -15.8 °C 1.4 °F /  -17 °C 1026.0 in /  34740.4 hPa Calm   1.8 mph /  2.9 km/h 86 % 0.0 in /  0 mm
17:19 3.3 °F /  -15.9 °C 1.4 °F /  -17 °C 1026.0 in /  34740.4 hPa Calm   3.5 mph /  5.6 km/h 87 % 0.0 in /  0 mm
17:29 3.1 °F /  -16.1 °C 1.3 °F /  -17.1 °C 1026.0 in /  34740.4 hPa NNE 5.8 mph /  9.3 km/h 5.8 mph /  9.3 km/h 88 % 0.0 in /  0 mm
17:39 3.1 °F /  -16.1 °C 1.7 °F /  -16.8 °C 1026.0 in /  34740.4 hPa North 1.4 mph /  2.3 km/h 6.9 mph /  11.1 km/h 90 % 0.0 in /  0 mm
17:49 3.1 °F /  -16.1 °C 1.8 °F /  -16.8 °C 1026.0 in /  34740.4 hPa North 1.8 mph /  2.9 km/h 5.8 mph /  9.3 km/h 91 % 0.0 in /  0 mm
17:59 3.1 °F /  -16.1 °C 1.8 °F /  -16.8 °C 1026.0 in /  34740.4 hPa Calm   5.0 mph /  8 km/h 91 % 0.0 in /  0 mm
18:09 3.1 °F /  -16.1 °C 1.7 °F /  -16.8 °C 1026.0 in /  34740.4 hPa Calm   5.5 mph /  8.9 km/h 91 % 0.0 in /  0 mm
18:19 3.1 °F /  -16.1 °C 1.7 °F /  -16.8 °C 1026.0 in /  34740.4 hPa Calm   5.0 mph /  8 km/h 91 % 0.0 in /  0 mm
18:29 2.8 °F /  -16.2 °C 1.5 °F /  -16.9 °C 1026.0 in /  34740.4 hPa NW 1.8 mph /  2.9 km/h 6.1 mph /  9.8 km/h 91 % 0.0 in /  0 mm
18:39 2.7 °F /  -16.3 °C 1.4 °F /  -17 °C 1027.0 in /  34774.2 hPa Calm   6.4 mph /  10.3 km/h 91 % 0.0 in /  0 mm
18:49 2.6 °F /  -16.3 °C 1.2 °F /  -17.1 °C 1027.0 in /  34774.2 hPa Calm   5.8 mph /  9.3 km/h 91 % 0.0 in /  0 mm
18:59 2.6 °F /  -16.3 °C 1.2 °F /  -17.1 °C 1027.0 in /  34774.2 hPa NNW 4.3 mph /  6.9 km/h 4.7 mph /  7.6 km/h 91 % 0.0 in /  0 mm
19:09 2.6 °F /  -16.3 °C 1.2 °F /  -17.1 °C 1027.0 in /  34774.2 hPa NNE 5.0 mph /  8 km/h 7.9 mph /  12.7 km/h 91 % 0.0 in /  0 mm
19:19 2.6 °F /  -16.3 °C 1.2 °F /  -17.1 °C 1027.0 in /  34774.2 hPa Calm   6.9 mph /  11.1 km/h 91 % 0.0 in /  0 mm
19:29 2.3 °F /  -16.5 °C 1.2 °F /  -17.1 °C 1027.0 in /  34774.2 hPa West 2.6 mph /  4.2 km/h 4.0 mph /  6.4 km/h 92 % 0.0 in /  0 mm
19:39 2.4 °F /  -16.4 °C 1.4 °F /  -17 °C 1027.0 in /  34774.2 hPa Calm   4.3 mph /  6.9 km/h 93 % 0.0 in /  0 mm
19:49 2.3 °F /  -16.5 °C 1.3 °F /  -17.1 °C 1027.0 in /  34774.2 hPa Calm   5.8 mph /  9.3 km/h 93 % 0.0 in /  0 mm
19:59 2.3 °F /  -16.5 °C 1.2 °F /  -17.1 °C 1027.0 in /  34774.2 hPa WNW 2.6 mph /  4.2 km/h 5.5 mph /  8.9 km/h 93 % 0.0 in /  0 mm
20:09 1.9 °F /  -16.7 °C 0.7 °F /  -17.4 °C 1027.0 in /  34774.2 hPa Calm   3.5 mph /  5.6 km/h 92 % 0.0 in /  0 mm
20:19 1.7 °F /  -16.8 °C 0.7 °F /  -17.4 °C 1027.0 in /  34774.2 hPa West 4.0 mph /  6.4 km/h 5.5 mph /  8.9 km/h 93 % 0.0 in /  0 mm
20:29 1.6 °F /  -16.9 °C 0.6 °F /  -17.4 °C 1027.0 in /  34774.2 hPa Calm   5.5 mph /  8.9 km/h 93 % 0.0 in /  0 mm
20:39 1.6 °F /  -16.9 °C 0.7 °F /  -17.4 °C 1027.0 in /  34774.2 hPa Calm   5.5 mph /  8.9 km/h 94 % 0.0 in /  0 mm
20:49 1.7 °F /  -16.8 °C 0.9 °F /  -17.3 °C 1027.0 in /  34774.2 hPa Calm   5.8 mph /  9.3 km/h 95 % 0.0 in /  0 mm
20:59 1.6 °F /  -16.9 °C 0.8 °F /  -17.3 °C 1027.0 in /  34774.2 hPa West 1.8 mph /  2.9 km/h 4.7 mph /  7.6 km/h 95 % 0.0 in /  0 mm
21:09 1.3 °F /  -17.1 °C 0.4 °F /  -17.6 °C 1027.0 in /  34774.2 hPa Calm     94 % 0.0 in /  0 mm
21:19 0.9 °F /  -17.3 °C 0.0 °F /  -17.8 °C 1027.0 in /  34774.2 hPa Calm     94 % 0.0 in /  0 mm
21:29 0.6 °F /  -17.4 °C -0.3 °F /  -17.9 °C 1027.0 in /  34774.2 hPa SW 2.6 mph /  4.2 km/h 3.5 mph /  5.6 km/h 94 % 0.0 in /  0 mm
21:39 0.6 °F /  -17.4 °C -0.3 °F /  -17.9 °C 1027.0 in /  34774.2 hPa Calm   1.8 mph /  2.9 km/h 94 % 0.0 in /  0 mm
21:49 0.6 °F /  -17.4 °C -0.1 °F /  -17.8 °C 1027.0 in /  34774.2 hPa Calm     95 % 0.0 in /  0 mm
21:59 0.5 °F /  -17.5 °C -0.1 °F /  -17.8 °C 1027.0 in /  34774.2 hPa WSW 4.3 mph /  6.9 km/h 5.5 mph /  8.9 km/h 96 % 0.0 in /  0 mm
22:09 0.6 °F /  -17.4 °C 0.0 °F /  -17.8 °C 1027.0 in /  34774.2 hPa West 5.0 mph /  8 km/h 6.9 mph /  11.1 km/h 96 % 0.0 in /  0 mm
22:19 0.8 °F /  -17.3 °C 0.4 °F /  -17.6 °C 1027.0 in /  34774.2 hPa West 6.9 mph /  11.1 km/h 7.6 mph /  12.2 km/h 97 % 0.0 in /  0 mm
22:29 1.0 °F /  -17.2 °C 0.6 °F /  -17.4 °C 1027.0 in /  34774.2 hPa Calm   7.9 mph /  12.7 km/h 97 % 0.0 in /  0 mm
22:39 1.1 °F /  -17.2 °C 0.7 °F /  -17.4 °C 1027.0 in /  34774.2 hPa Calm     97 % 0.0 in /  0 mm
22:49 1.3 °F /  -17.1 °C 0.8 °F /  -17.3 °C 1027.0 in /  34774.2 hPa West 5.8 mph /  9.3 km/h 6.4 mph /  10.3 km/h 97 % 0.0 in /  0 mm
22:59 1.4 °F /  -17 °C 0.9 °F /  -17.3 °C 1027.0 in /  34774.2 hPa Calm   6.4 mph /  10.3 km/h 97 % 0.0 in /  0 mm
23:09 1.3 °F /  -17.1 °C 0.8 °F /  -17.3 °C 1027.0 in /  34774.2 hPa Calm   6.4 mph /  10.3 km/h 97 % 0.0 in /  0 mm
23:19 1.3 °F /  -17.1 °C 0.8 °F /  -17.3 °C 1027.0 in /  34774.2 hPa Calm     97 % 0.0 in /  0 mm
23:29 1.2 °F /  -17.1 °C 0.8 °F /  -17.3 °C 1027.0 in /  34774.2 hPa Calm   5.5 mph /  8.9 km/h 97 % 0.0 in /  0 mm
23:39 1.2 °F /  -17.1 °C 0.8 °F /  -17.3 °C 1027.0 in /  34774.2 hPa Calm   4.0 mph /  6.4 km/h 97 % 0.0 in /  0 mm
23:49 1.4 °F /  -17 °C 1.2 °F /  -17.1 °C 1027.0 in /  34774.2 hPa Calm   7.6 mph /  12.2 km/h 98 % 0.0 in /  0 mm
23:59 1.0 °F /  -17.2 °C 0.6 °F /  -17.4 °C 1027.0 in /  34774.2 hPa Calm     97 % 0.0 in /  0 mm
Le Gheer Warneton
Courtoisie de Weather Underground - 1.5 mb

Mise a jour : 24/02/2018 15:18:11
Généré par Cumulus 1.9.4 (1099)